Time;durP1;ratioP1;P1;durP2;ratioP2;P2;SDS_P1;SDS_P2;PMS_P1;PMS_P2;Temp;Humidity;BMP_temperature;BMP_pressure;BME280_temperature;BME280_humidity;BME280_pressure;Samples;Min_cycle;Max_cycle;Signal;HPM_P1;HPM_P2
2022/03/11 00:00:08;;;;;;;12.93;5.57;;;;;;;2.63;72.56;101686.69;5255065;28;20104;-78
2022/03/11 00:02:38;;;;;;;18.85;6.57;;;;;;;2.55;73.04;101690.91;5237398;28;20039;-77
2022/03/11 00:05:08;;;;;;;14.23;6.57;;;;;;;2.55;73.29;101690.00;5255070;28;20025;-78
2022/03/11 00:07:39;;;;;;;13.30;6.18;;;;;;;2.56;73.19;101686.59;5252880;28;20020;-77
2022/03/11 00:10:09;;;;;;;11.35;6.22;;;;;;;2.60;72.30;101693.50;5233565;28;20174;-77
2022/03/11 00:12:39;;;;;;;13.38;5.68;;;;;;;2.57;72.49;101685.75;5254551;28;20020;-78
2022/03/11 00:15:10;;;;;;;11.10;5.45;;;;;;;2.49;72.81;101684.78;5236901;28;20170;-78
2022/03/11 00:17:40;;;;;;;14.07;6.35;;;;;;;2.41;73.27;101673.47;5255021;28;20031;-79
2022/03/11 00:20:11;;;;;;;13.02;6.45;;;;;;;2.30;74.05;101675.03;5236991;28;20516;-77
2022/03/11 00:22:42;;;;;;;13.82;6.57;;;;;;;2.34;73.41;101685.41;5254231;28;20080;-78
2022/03/11 00:25:13;;;;;;;9.15;4.97;;;;;;;2.37;73.30;101692.31;5254931;28;20065;-78
2022/03/11 00:27:44;;;;;;;13.23;6.18;;;;;;;2.37;73.68;101684.59;5254465;28;20107;-77
2022/03/11 00:30:14;;;;;;;14.35;5.72;;;;;;;2.34;73.09;101689.69;5255517;28;20186;-78
2022/03/11 00:32:45;;;;;;;11.07;5.88;;;;;;;2.30;73.16;101685.34;5254109;28;20024;-77
2022/03/11 00:35:15;;;;;;;14.20;6.30;;;;;;;2.22;73.98;101699.81;5237457;28;20393;-78
2022/03/11 00:37:46;;;;;;;11.35;5.57;;;;;;;2.13;74.25;101695.38;5251425;28;20024;-77
2022/03/11 00:40:16;;;;;;;11.27;5.85;;;;;;;2.00;75.20;101705.47;5254140;28;20036;-76
2022/03/11 00:42:46;;;;;;;15.32;6.00;;;;;;;2.00;74.89;101702.91;5255053;28;20097;-77
2022/03/11 00:45:16;;;;;;;13.60;5.72;;;;;;;1.95;75.11;101697.66;5254246;28;20454;-78
2022/03/11 00:47:47;;;;;;;15.20;6.22;;;;;;;1.94;75.04;101695.03;5254022;28;20032;-77
2022/03/11 00:50:17;;;;;;;13.75;6.40;;;;;;;1.90;75.32;101695.84;5255388;28;20194;-77
2022/03/11 00:52:47;;;;;;;12.95;6.15;;;;;;;1.97;74.54;101700.28;5253331;28;20048;-77
2022/03/11 00:55:18;;;;;;;13.80;6.13;;;;;;;2.15;73.19;101698.00;5255613;28;20035;-78
2022/03/11 00:57:48;;;;;;;15.50;5.88;;;;;;;2.21;72.90;101705.81;5253495;28;20039;-78
2022/03/11 01:00:19;;;;;;;13.35;5.97;;;;;;;2.26;71.95;101680.97;5255567;28;20027;-77
2022/03/11 01:02:49;;;;;;;15.13;6.25;;;;;;;2.21;71.86;101688.66;5252836;28;20031;-77
2022/03/11 01:05:22;;;;;;;12.15;5.55;;;;;;;2.26;72.28;101684.44;5255395;28;20508;-77
2022/03/11 01:07:52;;;;;;;14.57;5.88;;;;;;;2.26;71.46;101691.28;5250390;28;20052;-78
2022/03/11 01:10:23;;;;;;;11.75;5.63;;;;;;;2.13;72.20;101689.38;5253601;28;20044;-78
2022/03/11 01:12:53;;;;;;;12.23;6.13;;;;;;;2.04;72.57;101689.22;5252092;28;20694;-77
2022/03/11 01:15:23;;;;;;;12.57;5.55;;;;;;;2.16;71.29;101692.00;5225392;28;20069;-77
2022/03/11 01:17:54;;;;;;;11.40;5.32;;;;;;;2.15;70.74;101682.53;5231584;28;20066;-78
2022/03/11 01:20:25;;;;;;;12.77;5.93;;;;;;;2.13;71.27;101689.38;5254255;28;20470;-77
2022/03/11 01:22:56;;;;;;;11.85;5.70;;;;;;;2.09;71.39;101677.25;5246666;28;20466;-78
2022/03/11 01:25:26;;;;;;;11.25;5.70;;;;;;;2.07;70.88;101673.78;5256727;28;20024;-78
2022/03/11 01:27:56;;;;;;;17.25;5.70;;;;;;;2.02;71.06;101678.00;5237838;28;20270;-78
2022/03/11 01:30:27;;;;;;;13.32;5.97;;;;;;;2.01;70.54;101678.84;5252195;28;20028;-78
2022/03/11 01:32:57;;;;;;;15.55;6.30;;;;;;;1.96;71.28;101675.34;5255520;28;20032;-78
2022/03/11 01:35:27;;;;;;;14.40;6.10;;;;;;;1.94;71.37;101671.84;5255855;28;20240;-79
2022/03/11 01:37:57;;;;;;;11.45;5.68;;;;;;;1.92;71.02;101665.81;5255238;28;20042;-77
2022/03/11 01:40:28;;;;;;;15.52;6.10;;;;;;;1.83;71.30;101666.50;5245161;28;20036;-77
2022/03/11 01:42:58;;;;;;;14.95;6.32;;;;;;;1.87;71.23;101658.03;5250325;28;20039;-78
2022/03/11 01:45:28;;;;;;;13.75;5.95;;;;;;;1.86;72.17;101663.13;5244100;28;20032;-79
2022/03/11 01:47:59;;;;;;;17.80;6.13;;;;;;;1.72;72.00;101654.31;5256728;28;20020;-78
2022/03/11 01:50:29;;;;;;;11.30;5.65;;;;;;;1.61;72.45;101650.66;5239440;28;20020;-78
2022/03/11 01:53:00;;;;;;;12.90;5.90;;;;;;;1.59;72.73;101647.19;5240291;28;20020;-79
2022/03/11 01:55:30;;;;;;;12.10;5.95;;;;;;;1.61;72.66;101650.66;5255949;28;20406;-77
2022/03/11 01:58:02;;;;;;;10.98;5.57;;;;;;;1.57;72.36;101643.72;5240631;28;20016;-77
2022/03/11 02:00:39;;;;;;;14.80;6.25;;;;;;;1.51;73.26;101650.47;5256684;28;20386;-78
2022/03/11 02:03:10;;;;;;;13.85;6.13;;;;;;;1.50;72.88;101644.47;5256842;28;20032;-78
2022/03/11 02:05:43;;;;;;;11.77;5.68;;;;;;;1.43;73.73;101644.31;5257355;28;20122;-78
2022/03/11 02:08:14;;;;;;;11.65;5.95;;;;;;;1.47;72.80;101635.81;5237977;28;20412;-77
2022/03/11 02:10:44;;;;;;;12.95;5.75;;;;;;;1.54;72.41;101645.41;5253164;28;20032;-77
2022/03/11 02:13:14;;;;;;;13.68;5.50;;;;;;;1.51;71.73;101647.91;5258562;28;20052;-77
2022/03/11 02:15:44;;;;;;;14.35;5.82;;;;;;;1.52;71.98;101645.38;5256837;28;20028;-77
2022/03/11 02:18:15;;;;;;;17.77;6.15;;;;;;;1.48;72.11;101648.72;5253596;28;20118;-76
2022/03/11 02:20:48;;;;;;;13.48;5.63;;;;;;;1.44;72.56;101641.75;5256092;28;20501;-78
2022/03/11 02:23:19;;;;;;;11.88;5.28;;;;;;;1.33;72.91;101645.88;5256041;28;20027;-77
2022/03/11 02:25:49;;;;;;;12.40;5.68;;;;;;;1.28;73.05;101644.03;5240213;28;20020;-77
2022/03/11 02:28:19;;;;;;;11.68;5.78;;;;;;;1.30;73.00;101634.63;5255726;28;20039;-77
2022/03/11 02:30:50;;;;;;;11.10;5.07;;;;;;;1.21;73.65;101626.75;5258011;28;20543;-77
2022/03/11 02:33:20;;;;;;;8.88;4.72;;;;;;;1.21;73.26;101642.22;5255223;28;20013;-78
2022/03/11 02:35:50;;;;;;;12.07;5.72;;;;;;;1.12;73.76;101639.44;5334575;22;20040;-78
2022/03/11 02:38:20;;;;;;;13.63;4.82;;;;;;;1.17;73.22;101641.28;5266230;28;20024;-78
2022/03/11 02:40:51;;;;;;;11.95;5.60;;;;;;;1.07;73.67;101644.50;5278453;28;20386;-80
2022/03/11 02:43:22;;;;;;;13.43;5.95;;;;;;;1.03;74.37;101647.84;5266680;28;20028;-78
2022/03/11 02:45:53;;;;;;;13.85;5.82;;;;;;;1.08;74.07;101641.09;5285495;28;20037;-78
2022/03/11 02:48:23;;;;;;;13.23;6.10;;;;;;;1.03;74.00;101639.28;5260459;28;20027;-78
2022/03/11 02:50:54;;;;;;;12.88;5.95;;;;;;;0.95;74.33;101638.25;5284893;28;20028;-78
2022/03/11 02:53:25;;;;;;;12.25;5.38;;;;;;;0.98;73.60;101646.03;5266495;28;20023;-78
2022/03/11 02:55:55;;;;;;;11.98;5.63;;;;;;;0.92;74.69;101633.91;5280793;28;20485;-78
2022/03/11 02:58:25;;;;;;;14.15;5.70;;;;;;;0.94;74.14;101645.13;5267043;28;20035;-77
2022/03/11 03:00:56;;;;;;;14.82;5.88;;;;;;;0.85;74.84;101644.91;5280906;28;20365;-78
2022/03/11 03:03:26;;;;;;;11.93;5.78;;;;;;;0.79;74.78;101652.53;5284075;28;20023;-78
2022/03/11 03:05:56;;;;;;;13.02;5.57;;;;;;;0.78;74.78;101647.31;5276757;28;20417;-78
2022/03/11 03:08:27;;;;;;;13.63;6.03;;;;;;;0.75;75.21;101644.69;5279654;28;20070;-78
2022/03/11 03:10:57;;;;;;;12.80;6.35;;;;;;;0.77;75.03;101653.31;5271512;28;20024;-78
2022/03/11 03:13:28;;;;;;;14.85;6.30;;;;;;;0.71;75.32;101654.03;5284002;28;20031;-78
2022/03/11 03:15:58;;;;;;;15.85;7.05;;;;;;;0.70;75.36;101646.31;5280828;28;20060;-79
2022/03/11 03:18:30;;;;;;;15.60;5.93;;;;;;;0.68;75.40;101647.97;5278460;28;20038;-78
2022/03/11 03:21:00;;;;;;;15.02;6.13;;;;;;;0.65;75.63;101647.91;5266303;28;20543;-78
2022/03/11 03:23:30;;;;;;;15.32;6.22;;;;;;;0.62;75.46;101652.97;5265537;28;20028;-78
2022/03/11 03:26:01;;;;;;;15.07;6.15;;;;;;;0.61;75.70;101656.38;5263077;28;20020;-79
2022/03/11 03:28:32;;;;;;;13.43;6.28;;;;;;;0.66;75.52;101660.81;5283792;28;20031;-78
2022/03/11 03:31:02;;;;;;;16.27;6.10;;;;;;;0.64;75.19;101665.06;5281206;28;20038;-78
2022/03/11 03:33:33;;;;;;;12.63;6.35;;;;;;;0.60;74.79;101652.09;5283537;28;20587;-78
2022/03/11 03:36:03;;;;;;;13.10;6.15;;;;;;;0.59;75.69;101656.34;5281529;28;20037;-78
2022/03/11 03:38:34;;;;;;;16.48;6.95;;;;;;;0.52;75.63;101651.91;5260566;28;20088;-78
2022/03/11 03:41:04;;;;;;;14.10;6.57;;;;;;;0.53;75.75;101651.09;5268174;28;20032;-78
2022/03/11 03:43:35;;;;;;;13.60;6.15;;;;;;;0.58;75.20;101657.19;5273752;28;20040;-78
2022/03/11 03:46:07;;;;;;;13.60;6.53;;;;;;;0.58;75.05;101657.19;5281081;28;20587;-78
2022/03/11 03:48:37;;;;;;;13.82;6.50;;;;;;;0.53;75.82;101657.94;5279975;28;20326;-78
2022/03/11 03:51:07;;;;;;;14.15;6.65;;;;;;;0.49;75.51;101653.53;5264342;28;20047;-78
2022/03/11 03:53:37;;;;;;;13.43;6.28;;;;;;;0.53;75.15;101651.09;5259799;28;20035;-78
2022/03/11 03:56:08;;;;;;;13.85;6.85;;;;;;;0.57;75.46;101660.59;5280920;28;20027;-78
2022/03/11 03:58:38;;;;;;;14.32;6.05;;;;;;;0.46;75.48;101662.09;5263630;28;20031;-78
2022/03/11 04:01:08;;;;;;;11.93;5.65;;;;;;;0.51;74.92;101662.16;5281055;28;20028;-78
2022/03/11 04:03:38;;;;;;;13.70;5.85;;;;;;;0.52;75.00;101662.22;5281552;28;20020;-78
2022/03/11 04:06:09;;;;;;;15.23;6.85;;;;;;;0.54;74.86;101655.38;5280845;28;20444;-78
2022/03/11 04:08:40;;;;;;;13.82;5.90;;;;;;;0.54;74.59;101665.66;5278129;28;20067;-78
2022/03/11 04:11:10;;;;;;;16.98;6.57;;;;;;;0.43;75.13;101661.13;5271374;28;20074;-78
2022/03/11 04:13:40;;;;;;;13.27;5.85;;;;;;;0.51;73.98;101654.44;5281717;28;20019;-78
2022/03/11 04:16:11;;;;;;;13.95;6.28;;;;;;;0.56;73.98;101652.88;5261701;28;20059;-78
2022/03/11 04:18:41;;;;;;;17.35;6.80;;;;;;;0.45;74.17;101657.78;5281710;28;20027;-78
2022/03/11 04:21:11;;;;;;;12.55;5.68;;;;;;;0.44;73.84;101650.91;5262233;28;20028;-78
2022/03/11 04:23:43;;;;;;;13.38;5.85;;;;;;;0.52;73.84;101625.34;5257836;28;20056;-78
2022/03/11 04:26:13;;;;;;;15.05;6.18;;;;;;;0.51;73.51;101614.19;5281080;28;20027;-79
2022/03/11 04:28:44;;;;;;;14.82;5.97;;;;;;;0.47;73.43;101602.13;5279696;28;20365;-79
2022/03/11 04:31:14;;;;;;;12.25;6.28;;;;;;;0.40;73.91;101600.22;5262265;28;20031;-78
2022/03/11 04:33:44;;;;;;;15.43;6.80;;;;;;;0.42;74.16;101605.41;5280524;28;20392;-77
2022/03/11 04:36:15;;;;;;;20.23;6.15;;;;;;;0.36;74.07;101608.72;5264096;28;20024;-78
2022/03/11 04:38:45;;;;;;;13.05;5.85;;;;;;;0.39;73.64;101601.06;5257536;28;20027;-78
2022/03/11 04:41:15;;;;;;;15.18;6.15;;;;;;;0.42;72.89;101593.41;5271201;28;20059;-79
2022/03/11 04:43:46;;;;;;;12.90;6.15;;;;;;;0.36;73.75;101588.16;5272243;28;20054;-78
2022/03/11 04:46:16;;;;;;;13.10;5.07;;;;;;;0.37;73.43;101586.47;5281410;28;20220;-78
2022/03/11 04:48:47;;;;;;;10.27;4.82;;;;;;;0.40;72.81;101574.53;5279507;28;20036;-78
2022/03/11 04:51:19;;;;;;;13.85;5.90;;;;;;;0.43;73.07;101579.75;5280382;28;20027;-78
2022/03/11 04:53:50;;;;;;;10.70;5.30;;;;;;;0.41;72.60;101572.84;5281978;28;20102;-78
2022/03/11 04:56:21;;;;;;;12.27;5.10;;;;;;;0.30;72.98;101570.03;5278334;28;20434;-78
2022/03/11 04:58:51;;;;;;;14.68;5.43;;;;;;;0.38;72.33;101568.47;5263836;28;20480;-78
2022/03/11 05:01:21;;;;;;;12.90;5.15;;;;;;;0.39;71.89;101577.94;5279097;28;20023;-78
2022/03/11 05:03:51;;;;;;;10.50;4.57;;;;;;;0.39;71.77;101584.78;5279195;28;20048;-78
2022/03/11 05:06:22;;;;;;;10.27;4.97;;;;;;;0.32;72.06;101595.75;5274373;28;20031;-78
2022/03/11 05:08:52;;;;;;;14.35;5.68;;;;;;;0.33;72.43;101588.09;5254174;28;20468;-78
2022/03/11 05:11:22;;;;;;;15.60;5.72;;;;;;;0.27;72.37;101587.09;5265969;28;20035;-78
2022/03/11 05:13:53;;;;;;;15.40;6.43;;;;;;;0.26;72.35;101585.34;5270521;28;20309;-78
2022/03/11 05:16:23;;;;;;;16.48;6.40;;;;;;;0.18;73.27;101598.03;5256705;28;20028;-78
2022/03/11 05:18:53;;;;;;;11.82;5.20;;;;;;;0.18;72.75;101582.63;5277434;28;20030;-78
2022/03/11 05:21:23;;;;;;;17.95;6.30;;;;;;;0.10;73.46;101578.13;5283103;28;20055;-78
2022/03/11 05:23:54;;;;;;;15.15;6.18;;;;;;;0.07;72.86;101578.94;5261722;28;20032;-78
2022/03/11 05:26:28;;;;;;;12.18;5.53;;;;;;;0.09;72.77;101582.44;5283950;28;20481;-78
2022/03/11 05:28:59;;;;;;;14.57;6.65;;;;;;;0.10;72.56;101573.88;5275054;28;20059;-78
2022/03/11 05:31:29;;;;;;;12.38;5.97;;;;;;;0.08;72.59;101582.38;5287264;28;20031;-78
2022/03/11 05:33:59;;;;;;;18.98;6.25;;;;;;;0.01;73.23;101583.94;5264602;28;20028;-78
2022/03/11 05:36:30;;;;;;;14.93;6.15;;;;;;;0.02;72.69;101595.94;5287491;28;20087;-78
2022/03/11 05:39:00;;;;;;;13.32;6.35;;;;;;;0.01;72.85;101583.09;5285642;28;20024;-78
2022/03/11 05:41:31;;;;;;;14.63;5.85;;;;;;;-0.07;73.00;101599.16;5277226;28;20028;-78
2022/03/11 05:44:01;;;;;;;16.17;6.05;;;;;;;-0.05;72.69;101593.19;5274266;28;20059;-78
2022/03/11 05:46:31;;;;;;;15.35;6.00;;;;;;;-0.10;72.46;101589.66;5267823;28;20031;-78
2022/03/11 05:49:02;;;;;;;14.05;5.97;;;;;;;-0.22;73.34;101589.38;5263723;28;20043;-78
2022/03/11 05:51:32;;;;;;;12.93;5.95;;;;;;;-0.15;72.42;101592.97;5265214;28;20028;-78
2022/03/11 05:54:03;;;;;;;15.60;6.35;;;;;;;-0.16;72.75;101601.50;5284266;28;20488;-78
2022/03/11 05:56:37;;;;;;;11.02;5.22;;;;;;;-0.12;72.11;101591.34;5264762;28;20028;-77
2022/03/11 05:59:07;;;;;;;12.07;5.72;;;;;;;-0.09;71.92;101595.66;5265166;28;20030;-78
2022/03/11 06:01:37;;;;;;;13.38;5.57;;;;;;;-0.15;71.94;101590.38;5277975;28;20256;-78
2022/03/11 06:04:08;;;;;;;13.52;6.05;;;;;;;-0.14;72.20;101589.56;5282278;28;20035;-77
2022/03/11 06:06:38;;;;;;;13.30;5.97;;;;;;;-0.12;71.86;101595.59;5282049;28;20036;-78
2022/03/11 06:09:08;;;;;;;12.00;5.90;;;;;;;-0.04;71.60;101583.81;5275407;28;20034;-78
2022/03/11 06:11:39;;;;;;;14.85;6.13;;;;;;;-0.04;71.46;101588.94;5276216;28;20026;-79
2022/03/11 06:14:09;;;;;;;14.88;5.45;;;;;;;-0.03;71.33;101595.81;5277084;28;20024;-78
2022/03/11 06:16:40;;;;;;;13.65;5.70;;;;;;;0.00;70.84;101600.19;5272900;28;20036;-78
2022/03/11 06:19:10;;;;;;;12.48;5.70;;;;;;;0.04;70.06;101619.97;5280186;28;20020;-78
2022/03/11 06:21:41;;;;;;;10.85;5.18;;;;;;;-0.02;70.74;101612.13;5286319;28;20046;-78
2022/03/11 06:24:11;;;;;;;14.73;5.55;;;;;;;0.06;69.89;101605.47;5288793;28;20052;-79
2022/03/11 06:26:42;;;;;;;13.00;5.60;;;;;;;0.11;69.51;101605.56;5288419;28;20028;-77
2022/03/11 06:29:12;;;;;;;19.05;6.20;;;;;;;0.15;69.53;101605.69;5278609;28;20101;-75
2022/03/11 06:31:43;;;;;;;11.75;4.60;;;;;;;0.15;69.04;101612.50;5279113;28;20124;-78
2022/03/11 06:34:13;;;;;;;13.00;5.47;;;;;;;0.18;69.24;101625.44;5260360;28;20031;-78
2022/03/11 06:36:43;;;;;;;13.07;5.93;;;;;;;0.23;68.94;101616.97;5273342;28;20025;-78
2022/03/11 06:39:14;;;;;;;14.13;5.85;;;;;;;0.24;68.24;101623.84;5273910;28;20028;-78
2022/03/11 06:41:44;;;;;;;12.63;5.30;;;;;;;0.30;68.29;101629.16;5274906;28;20142;-78
2022/03/11 06:44:16;;;;;;;12.45;5.20;;;;;;;0.29;68.38;101618.81;5253228;28;20540;-78
2022/03/11 06:46:46;;;;;;;14.45;5.03;;;;;;;0.39;68.71;101631.91;5251999;28;20027;-78
2022/03/11 06:49:16;;;;;;;16.27;5.40;;;;;;;0.45;68.02;101624.34;5270205;28;20381;-77
2022/03/11 06:51:47;;;;;;;11.20;4.72;;;;;;;0.41;67.41;101626.81;5284415;28;20036;-77
2022/03/11 06:54:18;;;;;;;13.38;5.63;;;;;;;0.44;67.39;101627.75;5280696;28;20016;-79
2022/03/11 06:56:48;;;;;;;12.50;5.63;;;;;;;0.51;67.84;101629.63;5284474;28;20584;-78
2022/03/11 06:59:18;;;;;;;13.05;5.50;;;;;;;0.54;67.99;101626.25;5284980;28;20043;-78
2022/03/11 07:01:49;;;;;;;11.52;5.10;;;;;;;0.51;68.48;101639.91;5282512;28;20447;-77
2022/03/11 07:04:19;;;;;;;14.93;5.70;;;;;;;0.58;67.91;101626.31;5285375;28;20390;-76
2022/03/11 07:06:49;;;;;;;13.90;4.88;;;;;;;0.57;67.36;101622.03;5283219;28;20050;-78
2022/03/11 07:09:19;;;;;;;18.27;5.88;;;;;;;0.66;67.36;101629.06;5273177;28;20073;-77
2022/03/11 07:11:51;;;;;;;12.77;5.68;;;;;;;0.69;67.29;101631.72;5259302;28;20020;-78
2022/03/11 07:14:21;;;;;;;13.95;5.40;;;;;;;0.63;66.49;101626.44;5281421;28;20031;-78
2022/03/11 07:16:52;;;;;;;14.85;6.03;;;;;;;0.77;67.34;101625.00;5273232;28;20054;-77
2022/03/11 07:19:23;;;;;;;11.65;5.63;;;;;;;0.82;66.68;101623.41;5282980;28;20034;-78
2022/03/11 07:21:58;;;;;;;10.98;4.80;;;;;;;0.72;66.26;101612.06;5285230;28;20079;-77
2022/03/11 07:24:28;;;;;;;;;;;;;;;0.85;66.87;101623.44;5279139;28;20031;-78
2022/03/11 07:26:59;;;;;;;12.17;5.60;;;;;;;0.83;66.59;101623.44;5276591;28;19916;-77
2022/03/11 07:29:29;;;;;;;10.43;4.97;;;;;;;0.93;66.06;101617.63;5286007;28;20269;-78
2022/03/11 07:31:59;;;;;;;13.63;5.57;;;;;;;1.62;65.49;101613.78;5284501;28;20571;-77
2022/03/11 07:34:30;;;;;;;13.82;5.45;;;;;;;3.10;61.24;101602.97;5284574;28;20038;-77
2022/03/11 07:37:01;;;;;;;10.73;5.20;;;;;;;3.94;58.54;101607.19;5280780;28;20091;-78
2022/03/11 07:39:31;;;;;;;17.75;5.80;;;;;;;3.93;57.62;101587.38;5261393;28;20031;-77
2022/03/11 07:42:01;;;;;;;15.02;6.22;;;;;;;3.82;58.93;101609.69;5257628;28;20579;-78
2022/03/11 07:44:33;;;;;;;15.85;6.53;;;;;;;4.17;58.75;101595.31;5285187;28;20209;-78
2022/03/11 07:47:03;;;;;;;9.75;4.97;;;;;;;3.88;57.66;101595.94;5265534;28;20081;-76
2022/03/11 07:49:34;;;;;;;15.95;6.05;;;;;;;5.08;56.13;101587.09;5284769;28;20428;-77
2022/03/11 07:52:05;;;;;;;13.57;5.47;;;;;;;4.61;56.92;101593.81;5288391;28;20019;-77
2022/03/11 07:54:35;;;;;;;14.45;6.07;;;;;;;5.12;55.44;101582.81;5285613;28;20058;-77
2022/03/11 07:57:06;;;;;;;11.45;5.85;;;;;;;5.28;54.68;101582.81;5287178;28;20526;-76
2022/03/11 07:59:37;;;;;;;13.75;5.57;;;;;;;5.04;54.38;101589.66;5285960;28;20079;-77
2022/03/11 08:02:07;;;;;;;12.80;5.63;;;;;;;5.96;53.80;101583.75;5286991;28;20116;-76
2022/03/11 08:04:38;;;;;;;14.18;5.80;;;;;;;5.93;53.34;101594.13;5285049;28;20447;-76
2022/03/11 08:07:11;;;;;;;12.00;5.40;;;;;;;5.37;54.27;101589.75;5286515;28;20405;-78
2022/03/11 08:09:44;;;;;;;10.63;5.20;;;;;;;5.98;53.69;101584.63;5278342;28;20023;-77
2022/03/11 08:12:14;;;;;;;13.00;5.68;;;;;;;5.57;52.03;101587.16;5275568;28;20198;-79
2022/03/11 08:14:46;;;;;;;10.70;5.32;;;;;;;5.29;52.57;101574.19;5288049;28;20032;-76
2022/03/11 08:17:16;;;;;;;12.88;5.93;;;;;;;5.47;53.20;101587.16;5285853;28;20024;-77
2022/03/11 08:19:46;;;;;;;11.05;5.70;;;;;;;6.16;52.42;101582.00;5287839;28;20016;-77
2022/03/11 08:22:17;;;;;;;13.18;6.10;;;;;;;6.11;51.46;101576.81;5284548;28;20034;-75
2022/03/11 08:24:47;;;;;;;9.40;4.82;;;;;;;6.29;52.05;101578.50;5287557;28;20015;-78
2022/03/11 08:27:17;;;;;;;11.40;5.50;;;;;;;5.83;51.39;101575.13;5282536;28;20047;-76
2022/03/11 08:29:48;;;;;;;11.38;5.95;;;;;;;6.49;52.16;101571.53;5285676;28;20032;-75
2022/03/11 08:32:18;;;;;;;15.65;5.78;;;;;;;6.16;51.08;101571.63;5284385;28;20016;-76
2022/03/11 08:34:48;;;;;;;13.13;5.82;;;;;;;6.03;50.68;101564.72;5295048;22;20108;-77
2022/03/11 08:37:18;;;;;;;12.13;5.10;;;;;;;5.51;51.73;101576.81;5275726;28;20359;-78
2022/03/11 08:39:49;;;;;;;10.48;4.72;;;;;;;5.35;51.23;101560.38;5280560;28;20031;-78
2022/03/11 08:42:19;;;;;;;10.57;4.88;;;;;;;5.65;51.62;101576.81;5280644;28;20053;-77
2022/03/11 08:44:50;;;;;;;17.02;5.47;;;;;;;6.64;52.08;101561.09;5280372;28;20038;-78
2022/03/11 08:47:20;;;;;;;12.80;5.80;;;;;;;6.07;52.33;101566.47;5277178;28;20069;-78
2022/03/11 08:49:50;;;;;;;13.77;4.88;;;;;;;5.92;51.61;101571.66;5296241;28;20056;-78
2022/03/11 08:52:24;;;;;;;11.07;5.47;;;;;;;6.49;51.55;101561.13;5294582;28;20101;-78
2022/03/11 08:54:55;;;;;;;11.32;5.70;;;;;;;6.88;50.01;101550.56;5295245;28;20079;-79
2022/03/11 08:57:25;;;;;;;12.07;5.93;;;;;;;7.30;50.08;101559.88;5295351;28;20043;-77
2022/03/11 08:59:55;;;;;;;10.85;5.78;;;;;;;6.27;51.67;101564.69;5295221;28;20520;-78
2022/03/11 09:02:26;;;;;;;13.55;5.50;;;;;;;5.99;51.12;101561.28;5299368;28;20042;-79
2022/03/11 09:04:56;;;;;;;10.52;5.72;;;;;;;6.52;50.86;101550.75;5294896;28;20028;-78
2022/03/11 09:07:29;;;;;;;10.60;5.72;;;;;;;6.44;51.05;101561.16;5302224;28;20543;-78
2022/03/11 09:10:07;;;;;;;12.20;5.43;;;;;;;6.30;50.62;101560.34;5301751;28;20024;-78
2022/03/11 09:12:38;;;;;;;10.60;5.30;;;;;;;6.17;51.80;101548.25;5301775;28;20028;-78
2022/03/11 09:15:10;;;;;;;12.70;5.70;;;;;;;6.18;51.15;101549.13;5302563;28;20055;-78
2022/03/11 09:17:41;;;;;;;10.45;5.32;;;;;;;6.58;49.81;101542.94;5300889;28;20093;-79
2022/03/11 09:20:12;;;;;;;14.70;6.07;;;;;;;5.63;51.48;101547.41;5301470;28;20073;-78
2022/03/11 09:22:43;;;;;;;16.65;5.65;;;;;;;4.67;53.50;101551.56;5301672;28;20039;-77
2022/03/11 09:25:13;;;;;;;11.85;5.00;;;;;;;4.76;53.57;101556.75;5302592;28;20039;-77
2022/03/11 09:27:45;;;;;;;9.75;4.47;;;;;;;4.72;53.14;101550.72;5283367;28;20057;-78
2022/03/11 09:30:15;;;;;;;9.68;4.80;;;;;;;4.91;53.26;101549.94;5301069;28;20035;-77
2022/03/11 09:32:46;;;;;;;14.02;4.97;;;;;;;5.09;54.83;101547.38;5300681;28;20027;-77
2022/03/11 09:35:16;;;;;;;13.98;5.00;;;;;;;4.94;52.86;101555.09;5300545;28;20293;-77
2022/03/11 09:37:46;;;;;;;11.95;4.70;;;;;;;4.98;53.45;101543.88;5302003;28;20171;-77
2022/03/11 09:40:17;;;;;;;14.20;4.80;;;;;;;5.26;53.03;101539.63;5300665;28;20031;-78
2022/03/11 09:42:50;;;;;;;13.77;5.22;;;;;;;5.26;54.22;101539.63;5280259;28;20019;-78
2022/03/11 09:45:23;;;;;;;10.27;4.88;;;;;;;5.13;53.89;101549.09;5300326;28;20037;-78
2022/03/11 09:47:54;;;;;;;12.45;5.25;;;;;;;5.18;51.87;101544.78;5300040;28;20051;-78
2022/03/11 09:50:24;;;;;;;10.52;5.03;;;;;;;5.10;53.90;101537.84;5295405;28;20110;-78
2022/03/11 09:52:55;;;;;;;12.00;5.00;;;;;;;5.37;54.39;101533.59;5298630;28;20039;-78
2022/03/11 09:55:25;;;;;;;10.48;4.50;;;;;;;5.31;53.15;101524.97;5291420;28;20031;-78
2022/03/11 09:57:56;;;;;;;11.85;4.93;;;;;;;5.39;54.40;101529.28;5300108;28;20023;-77
2022/03/11 10:00:26;;;;;;;12.80;5.18;;;;;;;5.49;53.35;101533.59;5296268;28;20027;-77
2022/03/11 10:02:57;;;;;;;10.05;4.07;;;;;;;5.49;52.82;101531.00;5299367;28;20027;-78
2022/03/11 10:05:46;;;;;;;10.70;4.82;;;;;;;5.62;52.30;101530.13;5298400;28;20095;-77
2022/03/11 10:08:30;;;;;;;9.70;4.20;;;;;;;5.72;51.35;101535.31;5295628;28;20035;-78
2022/03/11 10:11:19;;;;;;;12.07;3.97;;;;;;;5.63;50.66;101542.25;5296898;28;20076;-78
2022/03/11 10:13:51;;;;;;;9.52;4.00;;;;;;;5.53;51.55;101541.38;5300004;28;20380;-78
2022/03/11 10:16:25;;;;;;;10.38;5.00;;;;;;;5.72;51.67;101527.53;5299380;28;20453;-77
2022/03/11 10:18:59;;;;;;;13.30;4.97;;;;;;;5.58;52.03;101534.44;5299304;28;20012;-78
2022/03/11 10:21:37;;;;;;;15.43;5.00;;;;;;;5.56;52.53;101527.56;5297107;28;20038;-78
2022/03/11 10:24:13;;;;;;;9.35;4.35;;;;;;;5.83;50.44;101524.97;5300404;28;20029;-78
2022/03/11 10:26:45;;;;;;;12.50;4.63;;;;;;;5.82;50.47;101529.31;5299391;28;20108;-77
2022/03/11 10:29:19;;;;;;;13.52;5.03;;;;;;;6.01;51.35;101524.94;5300341;28;20050;-77
2022/03/11 10:31:52;;;;;;;9.07;4.25;;;;;;;6.24;51.09;101523.16;5300913;28;20045;-78
2022/03/11 10:34:26;;;;;;;11.40;4.38;;;;;;;6.18;51.21;101528.34;5300633;28;20105;-77
2022/03/11 10:37:06;;;;;;;8.67;4.47;;;;;;;6.41;49.59;101505.81;5296095;28;20024;-78
2022/03/11 10:39:39;;;;;;;13.13;4.93;;;;;;;6.29;50.22;101513.63;5301237;28;20091;-78
2022/03/11 10:42:15;;;;;;;11.40;4.70;;;;;;;6.26;49.83;101511.88;5300253;28;20465;-78
2022/03/11 10:44:58;;;;;;;;;;;;;;;6.27;48.94;101504.97;5283094;28;20177;-78
2022/03/11 10:47:31;;;;;;;10.05;4.30;;;;;;;6.21;48.68;101505.84;5296090;28;19957;-77
2022/03/11 10:50:15;;;;;;;11.10;3.97;;;;;;;6.55;50.35;101503.97;5300404;28;20027;-79
2022/03/11 10:52:47;;;;;;;10.07;4.53;;;;;;;6.37;48.41;101498.88;5300315;28;20075;-77
2022/03/11 10:55:19;;;;;;;10.48;4.30;;;;;;;6.49;49.74;101483.25;5300255;28;20052;-77
2022/03/11 10:57:54;;;;;;;8.57;3.60;;;;;;;6.36;48.78;101504.94;5299818;28;20678;-77
2022/03/11 11:00:30;;;;;;;11.05;4.43;;;;;;;6.31;48.11;101497.19;5281652;28;20381;-77
2022/03/11 11:03:03;;;;;;;11.85;4.30;;;;;;;6.29;49.47;101503.25;5294944;28;20023;-77
2022/03/11 11:05:33;;;;;;;10.98;3.92;;;;;;;6.29;48.98;101501.50;5298859;28;20039;-77
2022/03/11 11:08:05;;;;;;;9.38;4.00;;;;;;;6.49;48.64;101484.13;5297320;28;20497;-77
2022/03/11 11:10:38;;;;;;;10.55;4.32;;;;;;;6.52;50.35;101494.50;5276552;28;20031;-78
2022/03/11 11:13:09;;;;;;;9.90;4.47;;;;;;;6.11;48.80;101513.69;5298583;28;20061;-78
2022/03/11 11:15:40;;;;;;;8.43;4.18;;;;;;;6.47;48.72;101505.75;5300022;28;20470;-78
2022/03/11 11:18:13;;;;;;;10.80;4.20;;;;;;;6.47;48.86;101490.19;5277141;28;20096;-78
2022/03/11 11:20:51;;;;;;;11.48;4.47;;;;;;;6.49;48.80;101483.25;5281234;28;20028;-77
2022/03/11 11:23:24;;;;;;;11.25;4.45;;;;;;;6.58;49.12;101489.25;5299986;28;20040;-78
2022/03/11 11:25:55;;;;;;;8.05;4.13;;;;;;;6.64;49.71;101481.47;5299269;28;20039;-77
2022/03/11 11:28:26;;;;;;;9.32;4.20;;;;;;;6.79;50.48;101476.16;5299560;28;20041;-78
2022/03/11 11:30:58;;;;;;;11.02;4.13;;;;;;;6.56;49.23;101490.16;5293486;28;20278;-78
2022/03/11 11:33:28;;;;;;;8.70;4.18;;;;;;;6.57;49.26;101466.75;5280363;28;20059;-77
2022/03/11 11:36:02;;;;;;;12.55;4.35;;;;;;;6.62;49.09;101464.16;5298574;28;20027;-78
2022/03/11 11:38:37;;;;;;;9.52;4.05;;;;;;;7.01;48.81;101450.91;5297826;28;20046;-78
2022/03/11 11:41:28;;;;;;;12.90;4.07;;;;;;;6.93;47.01;101445.75;5296760;28;20034;-78
2022/03/11 11:44:03;;;;;;;9.05;4.10;;;;;;;6.89;47.82;101448.38;5276527;28;20050;-78